Weather at Ameland Airport Ballum

Public forecast

Using degrees Celsius for public forecast. Weather courtesy of forecast.io.

Closest aviation weather report (METAR) to Ameland Airport Ballum

Closest report is AWG-1 Helipad, 9.7 nm (17.9 km) ENE.

2024/07/24 02:25 (retrieved 23 minutes ago)

EHMA 240225Z AUTO 34019KT //// // FEW016 SCT021 17/12 Q1019 RE//

Closest aviation forecast (TAF) to Ameland Airport Ballum

Closest forecast is Weeze Airport, 112.4 nm (208.2 km) S.

2024/07/23 22:54 Ammendment (retrieved 4 hours ago)

TAF AMD TAF AMD EDLV 232250Z 2322/2418 CNL